sensor_id;sensor_type;location;lat;lon;timestamp;pressure;altitude;pressure_sealevel;temperature;humidity
62942;BME280;49042;47.318;19.874;2023-04-26T00:01:23;99661.91;;;5.88;100.00
62942;BME280;49042;47.318;19.874;2023-04-26T00:04:27;99653.31;;;5.89;100.00
62942;BME280;49042;47.318;19.874;2023-04-26T00:07:30;99663.34;;;6.05;100.00
62942;BME280;49042;47.318;19.874;2023-04-26T00:10:31;99674.59;;;6.05;100.00
62942;BME280;49042;47.318;19.874;2023-04-26T00:13:33;99674.25;;;6.19;100.00
62942;BME280;49042;47.318;19.874;2023-04-26T00:16:35;99676.78;;;6.17;100.00
62942;BME280;49042;47.318;19.874;2023-04-26T00:19:36;99682.19;;;6.24;100.00
62942;BME280;49042;47.318;19.874;2023-04-26T00:22:39;99675.94;;;6.18;100.00
62942;BME280;49042;47.318;19.874;2023-04-26T00:25:41;99675.28;;;6.01;100.00
62942;BME280;49042;47.318;19.874;2023-04-26T00:28:43;99681.69;;;6.09;100.00
62942;BME280;49042;47.318;19.874;2023-04-26T00:31:44;99684.06;;;6.05;100.00
62942;BME280;49042;47.318;19.874;2023-04-26T00:34:46;99676.94;;;5.99;100.00
62942;BME280;49042;47.318;19.874;2023-04-26T00:37:48;99683.78;;;5.97;100.00
62942;BME280;49042;47.318;19.874;2023-04-26T00:40:49;99676.88;;;5.97;100.00
62942;BME280;49042;47.318;19.874;2023-04-26T00:43:51;99683.13;;;6.03;100.00
62942;BME280;49042;47.318;19.874;2023-04-26T00:46:53;99681.59;;;5.85;100.00
62942;BME280;49042;47.318;19.874;2023-04-26T00:49:55;99671.19;;;5.83;100.00
62942;BME280;49042;47.318;19.874;2023-04-26T00:52:57;99681.00;;;5.69;100.00
62942;BME280;49042;47.318;19.874;2023-04-26T00:55:59;99690.34;;;5.65;100.00
62942;BME280;49042;47.318;19.874;2023-04-26T00:59:02;99695.41;;;5.62;100.00
62942;BME280;49042;47.318;19.874;2023-04-26T01:02:04;99702.38;;;5.63;100.00
62942;BME280;49042;47.318;19.874;2023-04-26T01:05:06;99701.78;;;5.48;100.00
62942;BME280;49042;47.318;19.874;2023-04-26T01:08:09;99707.75;;;5.46;100.00
62942;BME280;49042;47.318;19.874;2023-04-26T01:11:11;99709.06;;;5.58;100.00
62942;BME280;49042;47.318;19.874;2023-04-26T01:14:13;99709.94;;;5.59;100.00
62942;BME280;49042;47.318;19.874;2023-04-26T01:17:15;99706.94;;;5.48;100.00
62942;BME280;49042;47.318;19.874;2023-04-26T01:20:17;99707.06;;;5.51;100.00
62942;BME280;49042;47.318;19.874;2023-04-26T01:23:18;99706.78;;;5.44;100.00
62942;BME280;49042;47.318;19.874;2023-04-26T01:26:20;99711.34;;;5.50;100.00
62942;BME280;49042;47.318;19.874;2023-04-26T01:29:22;99715.19;;;5.60;100.00
62942;BME280;49042;47.318;19.874;2023-04-26T01:32:24;99722.06;;;5.60;100.00
62942;BME280;49042;47.318;19.874;2023-04-26T01:35:26;99718.00;;;5.66;100.00
62942;BME280;49042;47.318;19.874;2023-04-26T01:38:28;99724.66;;;5.60;100.00
62942;BME280;49042;47.318;19.874;2023-04-26T01:41:30;99723.28;;;5.70;100.00
62942;BME280;49042;47.318;19.874;2023-04-26T01:44:33;99725.75;;;5.66;100.00
62942;BME280;49042;47.318;19.874;2023-04-26T01:47:34;99719.72;;;5.66;100.00
62942;BME280;49042;47.318;19.874;2023-04-26T01:50:36;99721.47;;;5.67;100.00
62942;BME280;49042;47.318;19.874;2023-04-26T01:53:38;99726.72;;;5.68;100.00
62942;BME280;49042;47.318;19.874;2023-04-26T01:56:39;99726.84;;;5.72;100.00
62942;BME280;49042;47.318;19.874;2023-04-26T01:59:41;99727.28;;;5.83;100.00
62942;BME280;49042;47.318;19.874;2023-04-26T02:02:43;99729.47;;;5.73;100.00
62942;BME280;49042;47.318;19.874;2023-04-26T02:05:45;99734.94;;;5.58;100.00
62942;BME280;49042;47.318;19.874;2023-04-26T02:08:47;99737.53;;;5.58;100.00
62942;BME280;49042;47.318;19.874;2023-04-26T02:11:50;99740.69;;;5.51;100.00
62942;BME280;49042;47.318;19.874;2023-04-26T02:14:51;99746.03;;;5.55;100.00
62942;BME280;49042;47.318;19.874;2023-04-26T02:17:53;99746.72;;;5.51;100.00
62942;BME280;49042;47.318;19.874;2023-04-26T02:20:56;99749.19;;;5.48;100.00
62942;BME280;49042;47.318;19.874;2023-04-26T02:23:57;99759.50;;;5.46;100.00
62942;BME280;49042;47.318;19.874;2023-04-26T02:26:59;99754.12;;;5.42;100.00
62942;BME280;49042;47.318;19.874;2023-04-26T02:30:04;99752.78;;;5.30;100.00
62942;BME280;49042;47.318;19.874;2023-04-26T02:33:06;99755.56;;;5.35;100.00
62942;BME280;49042;47.318;19.874;2023-04-26T02:36:09;99752.78;;;5.30;100.00
62942;BME280;49042;47.318;19.874;2023-04-26T02:39:11;99750.47;;;5.15;100.00
62942;BME280;49042;47.318;19.874;2023-04-26T02:42:13;99753.59;;;5.08;100.00
62942;BME280;49042;47.318;19.874;2023-04-26T02:45:15;99757.50;;;4.98;100.00
62942;BME280;49042;47.318;19.874;2023-04-26T02:48:17;99760.09;;;4.98;100.00
62942;BME280;49042;47.318;19.874;2023-04-26T02:51:19;99762.97;;;5.06;100.00
62942;BME280;49042;47.318;19.874;2023-04-26T02:54:21;99761.72;;;4.96;100.00
62942;BME280;49042;47.318;19.874;2023-04-26T02:57:22;99766.13;;;4.98;100.00
62942;BME280;49042;47.318;19.874;2023-04-26T03:00:24;99768.88;;;5.01;100.00
62942;BME280;49042;47.318;19.874;2023-04-26T03:03:26;99769.94;;;5.07;100.00
62942;BME280;49042;47.318;19.874;2023-04-26T03:06:28;99764.97;;;4.91;100.00
62942;BME280;49042;47.318;19.874;2023-04-26T03:09:30;99775.84;;;4.84;100.00
62942;BME280;49042;47.318;19.874;2023-04-26T03:12:32;99773.28;;;4.84;100.00
62942;BME280;49042;47.318;19.874;2023-04-26T03:15:33;99773.63;;;4.72;100.00
62942;BME280;49042;47.318;19.874;2023-04-26T03:18:35;99783.22;;;4.75;100.00
62942;BME280;49042;47.318;19.874;2023-04-26T03:21:37;99784.88;;;4.73;100.00
62942;BME280;49042;47.318;19.874;2023-04-26T03:24:39;99782.59;;;4.60;100.00
62942;BME280;49042;47.318;19.874;2023-04-26T03:27:41;99793.28;;;4.68;100.00
62942;BME280;49042;47.318;19.874;2023-04-26T03:30:43;99788.03;;;4.67;100.00
62942;BME280;49042;47.318;19.874;2023-04-26T03:33:44;99799.25;;;4.67;100.00
62942;BME280;49042;47.318;19.874;2023-04-26T03:36:46;99793.06;;;4.64;100.00
62942;BME280;49042;47.318;19.874;2023-04-26T03:39:48;99804.81;;;4.57;100.00
62942;BME280;49042;47.318;19.874;2023-04-26T03:42:51;99813.72;;;4.44;100.00
62942;BME280;49042;47.318;19.874;2023-04-26T03:45:52;99808.47;;;4.42;100.00
62942;BME280;49042;47.318;19.874;2023-04-26T03:48:54;99818.28;;;4.49;100.00
62942;BME280;49042;47.318;19.874;2023-04-26T03:51:56;99815.78;;;4.51;100.00
62942;BME280;49042;47.318;19.874;2023-04-26T03:54:57;99821.59;;;4.47;100.00
62942;BME280;49042;47.318;19.874;2023-04-26T03:57:59;99824.72;;;4.39;100.00
62942;BME280;49042;47.318;19.874;2023-04-26T04:01:01;99831.53;;;4.37;100.00
62942;BME280;49042;47.318;19.874;2023-04-26T04:04:04;99829.75;;;4.36;100.00
62942;BME280;49042;47.318;19.874;2023-04-26T04:07:06;99837.25;;;4.32;100.00
62942;BME280;49042;47.318;19.874;2023-04-26T04:10:08;99840.53;;;4.27;100.00
62942;BME280;49042;47.318;19.874;2023-04-26T04:13:11;99851.56;;;4.43;100.00
62942;BME280;49042;47.318;19.874;2023-04-26T04:16:12;99850.97;;;4.49;100.00
62942;BME280;49042;47.318;19.874;2023-04-26T04:19:14;99854.94;;;4.60;100.00
62942;BME280;49042;47.318;19.874;2023-04-26T04:22:16;99851.63;;;4.83;100.00
62942;BME280;49042;47.318;19.874;2023-04-26T04:25:17;99853.63;;;5.09;100.00
62942;BME280;49042;47.318;19.874;2023-04-26T04:28:21;99852.06;;;5.34;100.00
62942;BME280;49042;47.318;19.874;2023-04-26T04:31:23;99863.34;;;5.56;100.00
62942;BME280;49042;47.318;19.874;2023-04-26T04:34:25;99858.16;;;5.77;100.00
62942;BME280;49042;47.318;19.874;2023-04-26T04:37:27;99865.03;;;5.98;100.00
62942;BME280;49042;47.318;19.874;2023-04-26T04:40:33;99871.94;;;6.19;100.00
62942;BME280;49042;47.318;19.874;2023-04-26T04:43:35;99879.47;;;6.36;100.00
62942;BME280;49042;47.318;19.874;2023-04-26T04:46:37;99872.50;;;6.57;100.00
62942;BME280;49042;47.318;19.874;2023-04-26T04:49:40;99878.09;;;6.68;100.00
62942;BME280;49042;47.318;19.874;2023-04-26T04:52:42;99884.84;;;6.87;100.00
62942;BME280;49042;47.318;19.874;2023-04-26T04:55:44;99874.38;;;7.09;100.00
62942;BME280;49042;47.318;19.874;2023-04-26T04:58:46;99882.53;;;7.20;100.00
62942;BME280;49042;47.318;19.874;2023-04-26T05:01:49;99883.94;;;7.34;100.00
62942;BME280;49042;47.318;19.874;2023-04-26T05:04:50;99892.91;;;7.44;100.00
62942;BME280;49042;47.318;19.874;2023-04-26T05:07:52;99884.81;;;7.61;98.29
62942;BME280;49042;47.318;19.874;2023-04-26T05:10:54;99892.09;;;7.71;98.64
62942;BME280;49042;47.318;19.874;2023-04-26T05:13:57;99889.75;;;7.79;96.28
62942;BME280;49042;47.318;19.874;2023-04-26T05:16:58;99897.62;;;7.82;94.23
62942;BME280;49042;47.318;19.874;2023-04-26T05:20:00;99900.63;;;7.95;92.81
62942;BME280;49042;47.318;19.874;2023-04-26T05:23:06;99901.06;;;8.08;89.55
62942;BME280;49042;47.318;19.874;2023-04-26T05:26:14;99903.94;;;8.17;89.92
62942;BME280;49042;47.318;19.874;2023-04-26T05:29:15;99909.37;;;8.25;89.39
62942;BME280;49042;47.318;19.874;2023-04-26T05:32:17;99909.75;;;8.38;89.14
62942;BME280;49042;47.318;19.874;2023-04-26T05:35:19;99905.41;;;8.37;86.57
62942;BME280;49042;47.318;19.874;2023-04-26T05:38:20;99901.63;;;8.54;87.23
62942;BME280;49042;47.318;19.874;2023-04-26T05:41:22;99909.56;;;8.59;84.37
62942;BME280;49042;47.318;19.874;2023-04-26T05:44:24;99913.38;;;8.69;83.53
62942;BME280;49042;47.318;19.874;2023-04-26T05:47:26;99923.94;;;8.75;80.49
62942;BME280;49042;47.318;19.874;2023-04-26T05:50:27;99920.88;;;8.89;79.12
62942;BME280;49042;47.318;19.874;2023-04-26T05:53:29;99922.06;;;9.01;78.00
62942;BME280;49042;47.318;19.874;2023-04-26T05:56:31;99923.72;;;8.98;77.44
62942;BME280;49042;47.318;19.874;2023-04-26T05:59:36;99922.09;;;9.02;75.81
62942;BME280;49042;47.318;19.874;2023-04-26T06:02:37;99926.25;;;8.95;75.29
62942;BME280;49042;47.318;19.874;2023-04-26T06:05:39;99926.78;;;9.14;74.74
62942;BME280;49042;47.318;19.874;2023-04-26T06:08:42;99922.88;;;9.29;73.48
62942;BME280;49042;47.318;19.874;2023-04-26T06:11:44;99932.03;;;9.16;73.67
62942;BME280;49042;47.318;19.874;2023-04-26T06:14:45;99947.87;;;8.94;71.29
62942;BME280;49042;47.318;19.874;2023-04-26T06:17:47;99942.75;;;8.96;73.61
62942;BME280;49042;47.318;19.874;2023-04-26T06:20:50;99945.44;;;9.30;72.86
62942;BME280;49042;47.318;19.874;2023-04-26T06:23:51;99953.16;;;9.59;71.56
62942;BME280;49042;47.318;19.874;2023-04-26T06:26:53;99953.69;;;9.80;71.49
62942;BME280;49042;47.318;19.874;2023-04-26T06:29:55;99958.88;;;10.12;67.38
62942;BME280;49042;47.318;19.874;2023-04-26T06:32:57;99951.72;;;10.03;63.35
62942;BME280;49042;47.318;19.874;2023-04-26T06:36:00;99958.66;;;10.04;62.14
62942;BME280;49042;47.318;19.874;2023-04-26T06:39:02;99961.88;;;10.30;61.76
62942;BME280;49042;47.318;19.874;2023-04-26T06:42:04;99959.78;;;10.14;56.36
62942;BME280;49042;47.318;19.874;2023-04-26T06:45:06;99955.56;;;10.20;55.78
62942;BME280;49042;47.318;19.874;2023-04-26T06:48:08;99961.88;;;10.28;54.74
62942;BME280;49042;47.318;19.874;2023-04-26T06:51:10;99967.84;;;10.25;54.93
62942;BME280;49042;47.318;19.874;2023-04-26T06:54:12;99961.00;;;10.29;53.19
62942;BME280;49042;47.318;19.874;2023-04-26T06:57:14;99967.50;;;10.47;53.85
62942;BME280;49042;47.318;19.874;2023-04-26T07:00:16;99970.37;;;10.56;53.21
62942;BME280;49042;47.318;19.874;2023-04-26T07:03:18;99974.50;;;10.48;51.73
62942;BME280;49042;47.318;19.874;2023-04-26T07:06:20;99975.06;;;10.36;51.59
62942;BME280;49042;47.318;19.874;2023-04-26T07:09:22;99977.41;;;10.60;53.91
62942;BME280;49042;47.318;19.874;2023-04-26T07:12:24;99983.75;;;10.72;51.25
62942;BME280;49042;47.318;19.874;2023-04-26T07:15:25;99978.53;;;10.72;52.18
62942;BME280;49042;47.318;19.874;2023-04-26T07:18:27;99992.81;;;10.88;50.45
62942;BME280;49042;47.318;19.874;2023-04-26T07:21:29;99989.25;;;11.25;50.22
62942;BME280;49042;47.318;19.874;2023-04-26T07:24:30;99999.63;;;12.67;47.12
62942;BME280;49042;47.318;19.874;2023-04-26T07:27:32;99985.09;;;14.53;42.02
62942;BME280;49042;47.318;19.874;2023-04-26T07:30:34;99992.63;;;15.43;39.32
62942;BME280;49042;47.318;19.874;2023-04-26T07:33:36;100001.56;;;16.30;37.63
62942;BME280;49042;47.318;19.874;2023-04-26T07:36:38;99995.38;;;16.84;35.90
62942;BME280;49042;47.318;19.874;2023-04-26T07:39:39;99992.09;;;18.21;33.09
62942;BME280;49042;47.318;19.874;2023-04-26T07:42:41;99993.06;;;18.09;33.39
62942;BME280;49042;47.318;19.874;2023-04-26T07:45:43;99998.91;;;19.36;32.00
62942;BME280;49042;47.318;19.874;2023-04-26T07:48:44;100008.12;;;19.73;30.28
62942;BME280;49042;47.318;19.874;2023-04-26T07:51:47;100007.72;;;20.57;29.05
62942;BME280;49042;47.318;19.874;2023-04-26T07:54:49;100022.72;;;21.07;28.12
62942;BME280;49042;47.318;19.874;2023-04-26T07:57:52;100015.31;;;21.67;27.70
62942;BME280;49042;47.318;19.874;2023-04-26T08:00:54;100022.97;;;22.21;26.47
62942;BME280;49042;47.318;19.874;2023-04-26T08:03:55;100022.25;;;22.14;26.51
62942;BME280;49042;47.318;19.874;2023-04-26T08:06:59;100028.94;;;22.31;25.95
62942;BME280;49042;47.318;19.874;2023-04-26T08:10:02;100029.22;;;21.80;26.62
62942;BME280;49042;47.318;19.874;2023-04-26T08:13:04;100035.50;;;22.16;27.09
62942;BME280;49042;47.318;19.874;2023-04-26T08:16:06;100037.13;;;23.57;25.01
62942;BME280;49042;47.318;19.874;2023-04-26T08:19:07;100045.59;;;22.01;25.62
62942;BME280;49042;47.318;19.874;2023-04-26T08:22:09;100048.56;;;23.29;24.58
62942;BME280;49042;47.318;19.874;2023-04-26T08:25:11;100043.56;;;23.48;25.29
62942;BME280;49042;47.318;19.874;2023-04-26T08:28:12;100046.47;;;24.28;24.49
62942;BME280;49042;47.318;19.874;2023-04-26T08:31:14;100056.38;;;23.67;24.69
62942;BME280;49042;47.318;19.874;2023-04-26T08:34:18;100062.66;;;24.51;22.22
62942;BME280;49042;47.318;19.874;2023-04-26T08:37:19;100057.56;;;24.70;22.66
62942;BME280;49042;47.318;19.874;2023-04-26T08:40:22;100054.91;;;25.94;22.19
62942;BME280;49042;47.318;19.874;2023-04-26T08:43:28;100053.53;;;26.93;20.64
62942;BME280;49042;47.318;19.874;2023-04-26T08:46:35;100055.66;;;25.74;20.33
62942;BME280;49042;47.318;19.874;2023-04-26T08:49:40;100067.13;;;25.29;20.95
62942;BME280;49042;47.318;19.874;2023-04-26T08:52:42;100055.78;;;25.71;20.45
62942;BME280;49042;47.318;19.874;2023-04-26T08:55:48;100067.41;;;22.87;22.47
62942;BME280;49042;47.318;19.874;2023-04-26T08:58:51;100064.66;;;23.87;21.91
62942;BME280;49042;47.318;19.874;2023-04-26T09:01:54;100066.41;;;24.16;21.76
62942;BME280;49042;47.318;19.874;2023-04-26T09:04:56;100073.72;;;25.19;20.19
62942;BME280;49042;47.318;19.874;2023-04-26T09:08:02;100072.69;;;25.47;20.27
62942;BME280;49042;47.318;19.874;2023-04-26T09:11:05;100068.31;;;25.44;20.27
62942;BME280;49042;47.318;19.874;2023-04-26T09:14:07;100057.16;;;25.83;20.57
62942;BME280;49042;47.318;19.874;2023-04-26T09:17:25;100072.25;;;24.57;20.73
62942;BME280;49042;47.318;19.874;2023-04-26T09:20:29;100064.50;;;24.49;20.48
62942;BME280;49042;47.318;19.874;2023-04-26T09:23:32;100067.53;;;23.48;21.04
62942;BME280;49042;47.318;19.874;2023-04-26T09:26:33;100068.63;;;23.73;21.29
62942;BME280;49042;47.318;19.874;2023-04-26T09:29:35;100072.66;;;23.87;21.88
62942;BME280;49042;47.318;19.874;2023-04-26T09:33:02;100070.53;;;24.27;21.11
62942;BME280;49042;47.318;19.874;2023-04-26T09:36:11;100071.66;;;24.74;21.20
62942;BME280;49042;47.318;19.874;2023-04-26T09:39:36;100069.62;;;23.37;22.32
62942;BME280;49042;47.318;19.874;2023-04-26T09:42:38;100067.78;;;19.20;26.98
62942;BME280;49042;47.318;19.874;2023-04-26T09:49:00;100070.03;;;21.29;26.18
62942;BME280;49042;47.318;19.874;2023-04-26T09:52:05;100067.16;;;19.77;27.04
62942;BME280;49042;47.318;19.874;2023-04-26T09:55:07;100072.59;;;17.11;30.04
62942;BME280;49042;47.318;19.874;2023-04-26T09:58:14;100063.00;;;16.85;31.79
62942;BME280;49042;47.318;19.874;2023-04-26T10:01:18;100059.34;;;15.90;32.29
62942;BME280;49042;47.318;19.874;2023-04-26T10:04:20;100061.22;;;16.37;31.62
62942;BME280;49042;47.318;19.874;2023-04-26T10:07:23;100066.47;;;16.43;31.33
62942;BME280;49042;47.318;19.874;2023-04-26T10:10:26;100061.88;;;15.59;32.47
62942;BME280;49042;47.318;19.874;2023-04-26T10:13:28;100066.47;;;17.01;31.75
62942;BME280;49042;47.318;19.874;2023-04-26T10:16:32;100066.44;;;17.16;32.10
62942;BME280;49042;47.318;19.874;2023-04-26T10:19:35;100060.31;;;16.93;30.71
62942;BME280;49042;47.318;19.874;2023-04-26T10:22:55;100049.69;;;17.45;32.51
62942;BME280;49042;47.318;19.874;2023-04-26T10:26:01;100063.75;;;15.91;31.95
62942;BME280;49042;47.318;19.874;2023-04-26T10:29:03;100063.34;;;15.02;33.54
62942;BME280;49042;47.318;19.874;2023-04-26T10:32:06;100061.84;;;14.29;35.23
62942;BME280;49042;47.318;19.874;2023-04-26T10:35:12;100067.44;;;14.65;34.94
62942;BME280;49042;47.318;19.874;2023-04-26T10:38:14;100068.56;;;14.98;35.76
62942;BME280;49042;47.318;19.874;2023-04-26T10:41:27;100070.28;;;14.95;34.97
62942;BME280;49042;47.318;19.874;2023-04-26T10:44:41;100079.69;;;14.66;35.46
62942;BME280;49042;47.318;19.874;2023-04-26T10:47:43;100075.06;;;14.38;34.34
62942;BME280;49042;47.318;19.874;2023-04-26T10:54:02;100068.09;;;14.42;35.11
62942;BME280;49042;47.318;19.874;2023-04-26T10:57:04;100070.06;;;14.68;34.52
62942;BME280;49042;47.318;19.874;2023-04-26T11:03:17;100066.19;;;14.25;34.70
62942;BME280;49042;47.318;19.874;2023-04-26T11:06:18;100071.69;;;14.49;34.29
62942;BME280;49042;47.318;19.874;2023-04-26T11:09:39;100075.59;;;14.98;34.76
62942;BME280;49042;47.318;19.874;2023-04-26T11:12:41;100066.09;;;15.22;33.52
62942;BME280;49042;47.318;19.874;2023-04-26T11:15:42;100076.34;;;14.87;33.24
62942;BME280;49042;47.318;19.874;2023-04-26T11:18:46;100074.94;;;15.41;31.79
62942;BME280;49042;47.318;19.874;2023-04-26T11:21:48;100070.69;;;15.70;32.69
62942;BME280;49042;47.318;19.874;2023-04-26T11:24:50;100072.44;;;15.76;32.36
62942;BME280;49042;47.318;19.874;2023-04-26T11:27:57;100066.47;;;16.16;33.78
62942;BME280;49042;47.318;19.874;2023-04-26T11:30:59;100062.09;;;16.47;31.73
62942;BME280;49042;47.318;19.874;2023-04-26T11:34:04;100075.25;;;16.92;32.04
62942;BME280;49042;47.318;19.874;2023-04-26T11:37:06;100077.03;;;16.61;30.38
62942;BME280;49042;47.318;19.874;2023-04-26T11:40:09;100079.66;;;16.57;30.91
62942;BME280;49042;47.318;19.874;2023-04-26T11:43:12;100068.22;;;16.25;30.04
62942;BME280;49042;47.318;19.874;2023-04-26T11:46:14;100074.37;;;16.37;30.45
62942;BME280;49042;47.318;19.874;2023-04-26T11:49:17;100076.16;;;16.71;31.04
62942;BME280;49042;47.318;19.874;2023-04-26T11:52:19;100070.87;;;16.62;31.25
62942;BME280;49042;47.318;19.874;2023-04-26T11:55:27;100073.22;;;15.40;30.27
62942;BME280;49042;47.318;19.874;2023-04-26T11:58:29;100076.81;;;15.72;30.88
62942;BME280;49042;47.318;19.874;2023-04-26T12:01:30;100062.94;;;16.25;30.70
62942;BME280;49042;47.318;19.874;2023-04-26T12:04:33;100071.72;;;17.27;29.15
62942;BME280;49042;47.318;19.874;2023-04-26T12:07:36;100067.84;;;18.08;26.90
62942;BME280;49042;47.318;19.874;2023-04-26T12:10:38;100070.81;;;17.26;28.23
62942;BME280;49042;47.318;19.874;2023-04-26T12:13:39;100072.62;;;16.31;29.47
62942;BME280;49042;47.318;19.874;2023-04-26T12:16:41;100061.91;;;15.63;29.76
62942;BME280;49042;47.318;19.874;2023-04-26T12:19:43;100075.31;;;18.72;26.31
62942;BME280;49042;47.318;19.874;2023-04-26T12:23:07;100068.25;;;16.77;27.37
62942;BME280;49042;47.318;19.874;2023-04-26T12:26:10;100070.87;;;16.35;29.05
62942;BME280;49042;47.318;19.874;2023-04-26T12:29:12;100070.87;;;16.35;28.96
62942;BME280;49042;47.318;19.874;2023-04-26T12:32:14;100070.59;;;15.44;29.35
62942;BME280;49042;47.318;19.874;2023-04-26T12:35:16;100059.38;;;15.92;29.37
62942;BME280;49042;47.318;19.874;2023-04-26T12:38:17;100059.44;;;16.19;29.75
62942;BME280;49042;47.318;19.874;2023-04-26T12:41:19;100067.06;;;15.37;30.41
62942;BME280;49042;47.318;19.874;2023-04-26T12:44:21;100067.50;;;14.76;31.23
62942;BME280;49042;47.318;19.874;2023-04-26T12:47:23;100070.87;;;16.95;29.20
62942;BME280;49042;47.318;19.874;2023-04-26T12:50:25;100084.72;;;15.68;30.13
62942;BME280;49042;47.318;19.874;2023-04-26T12:53:27;100080.06;;;15.18;31.18
62942;BME280;49042;47.318;19.874;2023-04-26T12:56:29;100071.91;;;18.58;27.62
62942;BME280;49042;47.318;19.874;2023-04-26T12:59:30;100076.50;;;22.03;22.34
62942;BME280;49042;47.318;19.874;2023-04-26T13:02:32;100067.09;;;22.27;21.36
62942;BME280;49042;47.318;19.874;2023-04-26T13:05:34;100068.47;;;19.43;24.59
62942;BME280;49042;47.318;19.874;2023-04-26T13:08:36;100084.00;;;16.96;27.46
62942;BME280;49042;47.318;19.874;2023-04-26T13:11:38;100088.44;;;16.52;28.52
62942;BME280;49042;47.318;19.874;2023-04-26T13:14:41;100079.25;;;15.27;29.47
62942;BME280;49042;47.318;19.874;2023-04-26T13:17:42;100085.38;;;15.30;30.14
62942;BME280;49042;47.318;19.874;2023-04-26T13:20:44;100080.19;;;14.26;31.51
62942;BME280;49042;47.318;19.874;2023-04-26T13:23:46;100084.25;;;13.95;31.70
62942;BME280;49042;47.318;19.874;2023-04-26T13:26:48;100091.13;;;13.84;32.13
62942;BME280;49042;47.318;19.874;2023-04-26T13:29:50;100100.47;;;13.63;33.04
62942;BME280;49042;47.318;19.874;2023-04-26T13:32:52;100100.63;;;13.75;32.55
62942;BME280;49042;47.318;19.874;2023-04-26T13:35:54;100103.44;;;13.91;31.87
62942;BME280;49042;47.318;19.874;2023-04-26T13:38:56;100106.41;;;13.54;31.94
62942;BME280;49042;47.318;19.874;2023-04-26T13:41:58;100106.97;;;14.87;30.58
62942;BME280;49042;47.318;19.874;2023-04-26T13:45:00;100115.72;;;14.86;30.25
62942;BME280;49042;47.318;19.874;2023-04-26T13:48:06;100109.53;;;14.79;30.48
62942;BME280;49042;47.318;19.874;2023-04-26T13:51:08;100113.38;;;14.20;31.63
62942;BME280;49042;47.318;19.874;2023-04-26T13:54:10;100113.62;;;14.47;31.56
62942;BME280;49042;47.318;19.874;2023-04-26T13:57:12;100118.53;;;14.14;30.77
62942;BME280;49042;47.318;19.874;2023-04-26T14:00:14;100121.53;;;14.50;31.40
62942;BME280;49042;47.318;19.874;2023-04-26T14:03:16;100118.19;;;14.69;30.67
62942;BME280;49042;47.318;19.874;2023-04-26T14:06:18;100125.34;;;14.87;30.87
62942;BME280;49042;47.318;19.874;2023-04-26T14:09:20;100128.66;;;14.64;29.90
62942;BME280;49042;47.318;19.874;2023-04-26T14:12:22;100119.63;;;14.35;30.41
62942;BME280;49042;47.318;19.874;2023-04-26T14:15:24;100125.13;;;14.60;30.79
62942;BME280;49042;47.318;19.874;2023-04-26T14:18:26;100130.25;;;14.48;31.30
62942;BME280;49042;47.318;19.874;2023-04-26T14:21:27;100128.66;;;14.64;30.28
62942;BME280;49042;47.318;19.874;2023-04-26T14:24:29;100130.88;;;15.18;30.81
62942;BME280;49042;47.318;19.874;2023-04-26T14:27:31;100120.72;;;14.58;29.26
62942;BME280;49042;47.318;19.874;2023-04-26T14:30:33;100134.81;;;14.66;30.01
62942;BME280;49042;47.318;19.874;2023-04-26T14:33:35;100136.97;;;14.19;28.37
62942;BME280;49042;47.318;19.874;2023-04-26T14:36:37;100137.22;;;14.44;28.83
62942;BME280;49042;47.318;19.874;2023-04-26T14:39:38;100140.28;;;14.03;30.52
62942;BME280;49042;47.318;19.874;2023-04-26T14:42:41;100139.59;;;14.22;29.29
62942;BME280;49042;47.318;19.874;2023-04-26T14:45:46;100148.16;;;14.05;29.86
62942;BME280;49042;47.318;19.874;2023-04-26T14:48:48;100156.66;;;13.84;29.74
62942;BME280;49042;47.318;19.874;2023-04-26T14:51:50;100159.28;;;13.85;31.18
62942;BME280;49042;47.318;19.874;2023-04-26T14:54:54;100161.12;;;13.92;30.88
62942;BME280;49042;47.318;19.874;2023-04-26T14:57:56;100166.28;;;13.85;31.02
62942;BME280;49042;47.318;19.874;2023-04-26T15:00:58;100165.13;;;13.64;31.56
62942;BME280;49042;47.318;19.874;2023-04-26T15:04:00;100167.13;;;13.85;32.32
62942;BME280;49042;47.318;19.874;2023-04-26T15:07:03;100173.31;;;13.89;32.04
62942;BME280;49042;47.318;19.874;2023-04-26T15:10:05;100167.09;;;13.82;31.72
62942;BME280;49042;47.318;19.874;2023-04-26T15:13:08;100166.06;;;13.67;32.22
62942;BME280;49042;47.318;19.874;2023-04-26T15:16:09;100170.56;;;13.78;31.34
62942;BME280;49042;47.318;19.874;2023-04-26T15:19:11;100170.06;;;13.45;32.19
62942;BME280;49042;47.318;19.874;2023-04-26T15:22:13;100178.72;;;13.41;33.28
62942;BME280;49042;47.318;19.874;2023-04-26T15:25:15;100179.75;;;13.51;33.92
62942;BME280;49042;47.318;19.874;2023-04-26T15:28:17;100184.91;;;13.44;33.77
62942;BME280;49042;47.318;19.874;2023-04-26T15:31:19;100191.09;;;13.51;32.71
62942;BME280;49042;47.318;19.874;2023-04-26T15:34:21;100191.66;;;13.28;31.60
62942;BME280;49042;47.318;19.874;2023-04-26T15:37:25;100185.97;;;13.01;31.54
62942;BME280;49042;47.318;19.874;2023-04-26T15:40:27;100191.44;;;13.14;31.97
62942;BME280;49042;47.318;19.874;2023-04-26T15:43:30;100190.38;;;13.04;31.89
62942;BME280;49042;47.318;19.874;2023-04-26T15:46:32;100195.09;;;13.25;32.25
62942;BME280;49042;47.318;19.874;2023-04-26T15:49:34;100195.16;;;13.30;32.05
62942;BME280;49042;47.318;19.874;2023-04-26T15:52:36;100196.72;;;13.17;32.25
62942;BME280;49042;47.318;19.874;2023-04-26T15:55:40;100198.22;;;13.04;31.91
62942;BME280;49042;47.318;19.874;2023-04-26T15:58:45;100203.31;;;12.94;32.58